Time;durP1;ratioP1;P1;durP2;ratioP2;P2;SDS_P1;SDS_P2;PMS_P1;PMS_P2;Temp;Humidity;BMP_temperature;BMP_pressure;BME280_temperature;BME280_humidity;BME280_pressure;Samples;Min_cycle;Max_cycle;Signal;HPM_P1;HPM_P2
2023/08/18 00:01:50;;;;;;;12.57;7.35;;;19.20;99.90;;;;;;4124611;28;20088;-66
2023/08/18 00:03:50;;;;;;;9.77;6.22;;;19.20;99.90;;;;;;4123525;28;20117;-68
2023/08/18 00:05:51;;;;;;;9.65;6.18;;;19.20;99.90;;;;;;4121663;28;20488;-68
2023/08/18 00:07:51;;;;;;;10.25;7.18;;;19.30;99.90;;;;;;4132617;28;20030;-66
2023/08/18 00:09:52;;;;;;;11.98;7.55;;;19.40;99.90;;;;;;4128124;28;20500;-66
2023/08/18 00:11:53;;;;;;;13.82;7.95;;;19.40;99.90;;;;;;4151178;28;20038;-66
2023/08/18 00:13:53;;;;;;;12.30;8.02;;;19.40;99.90;;;;;;4118916;28;20027;-68
2023/08/18 00:15:54;;;;;;;11.52;6.95;;;19.50;99.90;;;;;;4108161;28;20030;-66
2023/08/18 00:17:55;;;;;;;12.82;7.85;;;19.60;99.90;;;;;;4143680;28;20480;-66
2023/08/18 00:19:55;;;;;;;14.18;8.35;;;19.50;99.90;;;;;;4122319;28;20734;-66
2023/08/18 00:21:56;;;;;;;16.55;10.38;;;19.60;99.90;;;;;;4124214;28;20034;-66
2023/08/18 00:23:57;;;;;;;15.02;9.80;;;19.50;99.90;;;;;;4135700;28;20034;-67
2023/08/18 00:25:57;;;;;;;15.68;9.38;;;19.50;99.90;;;;;;4117050;28;20051;-66
2023/08/18 00:27:58;;;;;;;16.08;10.00;;;19.40;99.90;;;;;;4137132;28;20101;-67
2023/08/18 00:29:59;;;;;;;14.20;8.32;;;19.50;99.90;;;;;;4151728;28;20415;-66
2023/08/18 00:31:59;;;;;;;11.70;7.93;;;19.50;99.90;;;;;;4113237;28;20459;-69
2023/08/18 00:34:00;;;;;;;13.23;7.88;;;19.50;99.90;;;;;;4113672;28;20111;-67
2023/08/18 00:36:01;;;;;;;13.55;8.15;;;19.60;99.90;;;;;;4122966;28;20031;-66
2023/08/18 00:38:01;;;;;;;11.10;6.95;;;19.60;99.90;;;;;;4125189;28;20109;-67
2023/08/18 00:40:02;;;;;;;12.43;8.10;;;19.60;99.90;;;;;;4154644;28;20033;-70
2023/08/18 00:42:03;;;;;;;11.35;6.97;;;19.60;99.90;;;;;;4112637;28;20023;-67
2023/08/18 00:44:03;;;;;;;14.65;8.10;;;19.50;99.90;;;;;;4108697;28;20510;-66
2023/08/18 00:46:05;;;;;;;12.43;7.45;;;19.40;99.90;;;;;;4109404;28;20110;-67
2023/08/18 00:48:06;;;;;;;11.95;6.78;;;19.50;99.90;;;;;;4109366;28;20041;-67
2023/08/18 00:50:09;;;;;;;11.98;7.80;;;19.50;99.90;;;;;;4111984;28;20038;-66
2023/08/18 00:52:10;;;;;;;12.02;6.80;;;19.50;99.90;;;;;;4142705;28;20038;-69
2023/08/18 00:54:12;;;;;;;9.65;6.20;;;19.50;99.90;;;;;;4111030;28;20042;-66
2023/08/18 00:56:13;;;;;;;9.97;5.77;;;19.60;99.90;;;;;;4109355;28;20556;-66
2023/08/18 00:58:14;;;;;;;11.73;7.25;;;19.50;99.90;;;;;;4118739;28;20514;-66
2023/08/18 01:00:15;;;;;;;8.98;5.88;;;19.60;99.90;;;;;;4118817;28;20055;-69
2023/08/18 01:02:20;;;;;;;13.25;7.95;;;19.60;99.90;;;;;;4158636;23;20065;-73
2023/08/18 01:04:21;;;;;;;15.70;7.85;;;19.60;99.90;;;;;;4127234;28;20038;-63
2023/08/18 01:06:22;;;;;;;12.30;7.60;;;19.60;99.90;;;;;;4130210;28;20037;-65
2023/08/18 01:08:22;;;;;;;14.05;8.68;;;19.60;99.90;;;;;;4130010;28;20038;-65
2023/08/18 01:10:25;;;;;;;14.68;8.88;;;19.60;99.90;;;;;;4127377;28;20042;-65
2023/08/18 01:13:04;;;;;;;14.65;8.60;;;19.60;99.90;;;;;;4130331;28;20037;-65
2023/08/18 01:15:15;;;;;;;16.67;9.25;;;19.60;99.90;;;;;;4122788;28;20022;-65
2023/08/18 01:17:45;;;;;;;19.55;11.40;;;19.50;99.90;;;;;;4130028;28;20041;-65
2023/08/18 01:19:47;;;;;;;20.75;11.50;;;19.50;99.90;;;;;;4129885;28;20130;-65
2023/08/18 01:21:53;;;;;;;21.17;11.47;;;19.60;99.90;;;;;;4127085;28;20390;-65
2023/08/18 01:23:53;;;;;;;20.77;10.90;;;19.50;99.90;;;;;;4122580;28;20038;-65
2023/08/18 01:25:54;;;;;;;17.88;10.63;;;19.50;99.90;;;;;;4129195;28;20057;-68
2023/08/18 01:27:57;;;;;;;28.73;13.55;;;19.50;99.90;;;;;;4137943;28;20087;-65
2023/08/18 01:29:58;;;;;;;23.33;12.77;;;19.40;99.90;;;;;;4162161;28;20032;-65
2023/08/18 01:32:02;;;;;;;25.20;13.68;;;19.30;99.90;;;;;;4160355;28;20040;-65
2023/08/18 01:34:07;;;;;;;21.52;12.73;;;19.30;99.90;;;;;;4161924;28;20039;-65
2023/08/18 01:36:18;;;;;;;22.40;12.40;;;19.30;99.90;;;;;;4160668;28;20045;-65
2023/08/18 01:38:22;;;;;;;42.80;20.60;;;19.30;99.90;;;;;;4162287;28;20021;-67
2023/08/18 01:40:27;;;;;;;26.42;14.27;;;18.90;99.90;;;;;;4158816;28;20033;-65
2023/08/18 01:42:28;;;;;;;26.95;14.80;;;19.00;99.90;;;;;;4162370;28;20485;-65
2023/08/18 01:44:29;;;;;;;24.92;14.73;;;19.00;99.90;;;;;;4160591;28;20091;-65
2023/08/18 01:46:29;;;;;;;30.75;16.30;;;18.90;99.90;;;;;;4161375;28;20428;-65
2023/08/18 01:48:30;;;;;;;24.25;14.27;;;18.90;99.90;;;;;;4162412;28;20052;-65
2023/08/18 01:50:31;;;;;;;29.42;14.63;;;19.00;99.90;;;;;;4161332;28;21155;-65
2023/08/18 01:52:31;;;;;;;25.70;14.60;;;19.00;99.90;;;;;;4162359;28;20025;-65
2023/08/18 01:54:32;;;;;;;27.05;13.82;;;19.00;99.90;;;;;;4161852;28;20486;-65
2023/08/18 01:56:33;;;;;;;22.40;13.55;;;19.10;99.90;;;;;;4161401;28;20060;-65
2023/08/18 01:58:33;;;;;;;26.40;14.70;;;19.10;99.90;;;;;;4160420;28;20515;-65
2023/08/18 02:00:34;;;;;;;27.90;16.52;;;19.10;99.90;;;;;;4175302;28;20044;-65
2023/08/18 02:02:35;;;;;;;22.83;13.43;;;19.00;99.90;;;;;;4165760;28;20413;-65
2023/08/18 02:04:36;;;;;;;26.85;15.00;;;19.10;99.90;;;;;;4176027;28;20091;-65
2023/08/18 02:06:36;;;;;;;26.05;15.68;;;19.00;99.90;;;;;;4161423;28;20041;-65
2023/08/18 02:08:37;;;;;;;26.73;15.52;;;19.00;99.90;;;;;;4158861;28;20037;-65
2023/08/18 02:10:37;;;;;;;26.45;15.70;;;18.90;99.90;;;;;;4158107;28;20067;-65
2023/08/18 02:12:38;;;;;;;31.08;16.92;;;18.90;99.90;;;;;;4177151;28;20526;-66
2023/08/18 02:14:39;;;;;;;24.75;14.30;;;18.90;99.90;;;;;;4159297;28;20044;-63
2023/08/18 02:16:41;;;;;;;24.65;14.65;;;18.90;99.90;;;;;;4161281;28;20033;-64
2023/08/18 02:18:41;;;;;;;27.27;15.75;;;18.90;99.90;;;;;;4161745;28;20033;-64
2023/08/18 02:20:42;;;;;;;32.50;19.80;;;18.90;99.90;;;;;;4161289;28;20049;-64
2023/08/18 02:22:42;;;;;;;35.10;20.42;;;18.80;99.90;;;;;;4161522;28;20159;-63
2023/08/18 02:24:43;;;;;;;42.80;22.30;;;18.70;99.90;;;;;;4160432;28;20490;-64
2023/08/18 02:26:44;;;;;;;39.40;20.83;;;18.60;99.90;;;;;;4160558;28;20041;-63
2023/08/18 02:28:44;;;;;;;40.92;23.33;;;18.50;99.90;;;;;;4161488;28;20033;-63
2023/08/18 02:30:45;;;;;;;30.50;17.70;;;18.50;99.90;;;;;;4161738;28;20125;-64
2023/08/18 02:32:45;;;;;;;41.90;24.20;;;18.50;99.90;;;;;;4160906;28;20532;-63
2023/08/18 02:34:46;;;;;;;31.90;18.00;;;18.50;99.90;;;;;;4159743;28;20037;-64
2023/08/18 02:36:47;;;;;;;46.83;25.10;;;18.60;99.90;;;;;;4160136;28;20497;-64
2023/08/18 02:38:47;;;;;;;45.78;23.40;;;18.50;99.90;;;;;;4160885;28;20034;-63
2023/08/18 02:40:48;;;;;;;39.20;20.42;;;18.50;99.90;;;;;;4162550;28;20025;-63
2023/08/18 02:42:48;;;;;;;35.08;19.80;;;18.50;99.90;;;;;;4172460;28;20083;-64
2023/08/18 02:44:49;;;;;;;32.15;19.23;;;18.50;99.90;;;;;;4161138;28;20033;-64
2023/08/18 02:46:49;;;;;;;35.33;21.23;;;18.60;99.90;;;;;;4159067;28;20033;-64
2023/08/18 02:48:50;;;;;;;35.67;20.83;;;18.60;99.90;;;;;;4159366;28;20029;-66
2023/08/18 02:50:50;;;;;;;35.60;21.60;;;18.70;99.90;;;;;;4158028;28;20117;-64
2023/08/18 02:52:51;;;;;;;38.08;23.30;;;18.70;99.90;;;;;;4159929;28;20818;-64
2023/08/18 02:54:52;;;;;;;36.15;22.13;;;18.70;99.90;;;;;;4159367;28;20068;-64
2023/08/18 02:56:52;;;;;;;31.58;20.75;;;18.70;99.90;;;;;;4158670;28;20037;-64
2023/08/18 02:58:53;;;;;;;42.60;24.77;;;18.80;99.90;;;;;;4160526;28;20448;-64
2023/08/18 03:01:02;;;;;;;54.03;29.20;;;18.70;99.90;;;;;;4158643;28;20091;-64
2023/08/18 03:03:03;;;;;;;46.50;25.23;;;18.50;99.90;;;;;;4159350;28;20061;-63
2023/08/18 03:05:04;;;;;;;47.03;26.63;;;18.50;99.90;;;;;;4159666;28;20030;-64
2023/08/18 03:07:05;;;;;;;46.53;27.10;;;18.40;99.90;;;;;;4159955;28;20508;-64
2023/08/18 03:09:06;;;;;;;54.35;30.40;;;18.40;99.90;;;;;;4160490;28;20041;-64
2023/08/18 03:11:07;;;;;;;52.55;29.73;;;18.40;99.90;;;;;;4164114;28;20079;-63
2023/08/18 03:13:08;;;;;;;46.60;27.03;;;18.30;99.90;;;;;;4160122;28;20049;-64
2023/08/18 03:15:09;;;;;;;51.30;29.63;;;18.30;99.90;;;;;;4148736;28;20286;-66
2023/08/18 03:17:10;;;;;;;54.13;30.10;;;18.30;99.90;;;;;;4162689;28;20040;-64
2023/08/18 03:19:11;;;;;;;54.20;28.48;;;18.30;99.90;;;;;;4160501;28;20489;-64
2023/08/18 03:21:12;;;;;;;48.55;28.00;;;18.30;99.90;;;;;;4150721;28;20138;-64
2023/08/18 03:23:18;;;;;;;53.30;29.27;;;18.30;99.90;;;;;;4155096;28;20033;-72
2023/08/18 03:25:18;;;;;;;52.05;27.83;;;18.30;99.90;;;;;;4157444;28;20040;-70
2023/08/18 03:27:19;;;;;;;33.80;21.40;;;18.30;99.90;;;;;;4158506;28;20112;-70
2023/08/18 03:29:20;;;;;;;43.88;24.10;;;18.30;99.90;;;;;;4157648;28;20084;-70
2023/08/18 03:31:20;;;;;;;41.35;24.90;;;18.40;99.90;;;;;;4165001;28;20144;-71
2023/08/18 03:33:21;;;;;;;45.63;25.60;;;18.40;99.90;;;;;;4157654;28;20083;-68
2023/08/18 03:35:21;;;;;;;44.08;24.17;;;18.40;99.90;;;;;;4156544;28;20105;-70
2023/08/18 03:37:22;;;;;;;38.50;22.70;;;18.40;99.90;;;;;;4158399;28;20042;-71
2023/08/18 03:39:22;;;;;;;32.40;19.02;;;18.40;99.90;;;;;;4156437;28;20029;-71
2023/08/18 03:41:23;;;;;;;32.55;18.98;;;18.50;99.90;;;;;;4159160;28;20413;-72
2023/08/18 03:43:23;;;;;;;31.13;18.23;;;18.50;99.90;;;;;;4157256;28;20048;-71
2023/08/18 03:45:24;;;;;;;46.50;26.33;;;18.50;99.90;;;;;;4158379;28;20033;-71
2023/08/18 03:47:25;;;;;;;52.20;26.67;;;18.40;99.90;;;;;;4158910;28;20077;-71
2023/08/18 03:49:26;;;;;;;39.22;22.92;;;18.30;99.90;;;;;;4157964;28;20481;-72
2023/08/18 03:51:26;;;;;;;36.08;21.15;;;18.30;99.90;;;;;;4161531;28;20121;-71
2023/08/18 03:53:27;;;;;;;42.25;23.33;;;18.30;99.90;;;;;;4161608;28;20086;-71
2023/08/18 03:55:28;;;;;;;45.13;24.60;;;18.40;99.90;;;;;;4160048;28;20429;-72
2023/08/18 03:57:28;;;;;;;47.35;25.80;;;18.30;99.90;;;;;;4161593;28;20041;-72
2023/08/18 03:59:29;;;;;;;38.78;20.60;;;18.20;99.90;;;;;;4156322;28;20100;-72
2023/08/18 04:01:29;;;;;;;36.47;20.65;;;18.30;99.90;;;;;;4163282;28;20035;-72
2023/08/18 04:03:30;;;;;;;30.42;17.65;;;18.20;99.90;;;;;;4160081;28;20299;-72
2023/08/18 04:05:31;;;;;;;41.63;23.30;;;18.30;99.90;;;;;;4159342;28;20137;-71
2023/08/18 04:07:31;;;;;;;34.92;19.58;;;18.30;99.90;;;;;;4162091;28;20398;-72
2023/08/18 04:09:32;;;;;;;36.70;20.77;;;18.40;99.90;;;;;;4159912;28;20659;-72
2023/08/18 04:11:36;;;;;;;43.38;23.48;;;18.40;99.90;;;;;;4161741;28;20041;-72
2023/08/18 04:13:37;;;;;;;48.42;26.00;;;18.30;99.90;;;;;;4156652;28;20041;-72
2023/08/18 04:15:37;;;;;;;44.45;25.58;;;18.30;99.90;;;;;;4151610;28;20064;-72
2023/08/18 04:17:38;;;;;;;42.50;24.55;;;18.30;99.90;;;;;;4156581;28;20026;-72
2023/08/18 04:19:38;;;;;;;42.47;22.58;;;18.30;99.90;;;;;;4133143;28;20136;-72
2023/08/18 04:21:39;;;;;;;39.78;22.42;;;18.30;99.90;;;;;;4159273;28;20042;-72
2023/08/18 04:23:40;;;;;;;39.15;22.50;;;18.30;99.90;;;;;;4161029;28;20394;-71
2023/08/18 04:25:44;;;;;;;43.70;24.30;;;18.30;99.90;;;;;;4158641;28;20037;-71
2023/08/18 04:27:45;;;;;;;58.92;28.77;;;18.30;99.90;;;;;;4160993;28;20037;-72
2023/08/18 04:29:45;;;;;;;40.00;21.98;;;18.20;99.90;;;;;;4160292;28;20417;-72
2023/08/18 04:31:46;;;;;;;35.42;20.13;;;18.30;99.90;;;;;;4161334;28;20136;-63
2023/08/18 04:33:47;;;;;;;34.67;19.83;;;18.30;99.90;;;;;;4140179;28;20098;-63
2023/08/18 04:35:47;;;;;;;37.40;21.10;;;18.40;99.90;;;;;;4159778;28;20036;-63
2023/08/18 04:37:48;;;;;;;34.40;21.92;;;18.40;99.90;;;;;;4159246;28;20389;-63
2023/08/18 04:39:48;;;;;;;35.47;19.90;;;18.40;99.90;;;;;;4187239;28;20111;-63
2023/08/18 04:41:49;;;;;;;26.38;17.27;;;18.40;99.90;;;;;;4158799;28;20052;-70
2023/08/18 04:43:51;;;;;;;33.53;20.42;;;18.50;99.90;;;;;;4160347;28;20030;-65
2023/08/18 04:45:52;;;;;;;37.72;22.40;;;18.50;99.90;;;;;;4161772;28;20393;-68
2023/08/18 04:47:53;;;;;;;35.53;21.42;;;18.40;99.90;;;;;;4165159;28;20559;-67
2023/08/18 04:49:54;;;;;;;36.25;21.35;;;18.40;99.90;;;;;;4160062;28;20033;-66
2023/08/18 04:51:54;;;;;;;36.70;21.50;;;18.30;99.90;;;;;;4160681;28;20038;-79
2023/08/18 04:53:55;;;;;;;40.08;22.65;;;18.30;99.90;;;;;;4160130;28;20033;-79
2023/08/18 04:55:55;;;;;;;40.88;22.85;;;18.30;99.90;;;;;;4159102;28;20026;-79
2023/08/18 04:57:56;;;;;;;39.65;23.48;;;18.30;99.90;;;;;;4160402;28;20069;-79
2023/08/18 04:59:56;;;;;;;37.15;20.90;;;18.40;99.90;;;;;;4158910;28;20029;-76
2023/08/18 05:01:57;;;;;;;41.45;23.88;;;18.40;99.90;;;;;;4160759;28;20025;-72
2023/08/18 05:03:58;;;;;;;40.13;23.92;;;18.30;99.90;;;;;;4158263;28;20018;-72
2023/08/18 05:06:03;;;;;;;31.33;18.33;;;18.30;99.90;;;;;;4158831;28;20425;-73
2023/08/18 05:08:04;;;;;;;30.00;18.75;;;18.40;99.90;;;;;;4161075;28;20033;-72
2023/08/18 05:10:05;;;;;;;35.72;21.02;;;18.40;99.90;;;;;;4157787;28;20021;-73
2023/08/18 05:12:07;;;;;;;33.95;20.73;;;18.40;99.90;;;;;;4156909;28;20040;-73
2023/08/18 05:14:08;;;;;;;26.05;16.95;;;18.40;99.90;;;;;;4156032;28;20036;-73
2023/08/18 05:16:09;;;;;;;28.25;18.02;;;18.50;99.90;;;;;;4165456;28;20052;-73
2023/08/18 05:18:10;;;;;;;30.02;19.05;;;18.50;99.90;;;;;;4170773;28;20029;-73
2023/08/18 05:20:11;;;;;;;36.80;21.63;;;18.60;99.90;;;;;;4170873;28;20037;-73
2023/08/18 05:22:11;;;;;;;37.67;21.95;;;18.60;99.90;;;;;;4163732;28;20021;-73
2023/08/18 05:24:12;;;;;;;28.55;18.48;;;18.60;99.90;;;;;;4161320;28;20040;-72
2023/08/18 05:26:13;;;;;;;27.63;16.73;;;18.70;99.90;;;;;;4162353;28;20037;-73
2023/08/18 05:28:17;;;;;;;29.67;18.02;;;18.70;99.90;;;;;;4158953;28;20026;-73
2023/08/18 05:30:17;;;;;;;43.72;24.08;;;18.80;99.90;;;;;;4155884;28;20037;-73
2023/08/18 05:32:18;;;;;;;37.80;22.77;;;18.80;99.90;;;;;;4156389;28;20036;-69
2023/08/18 05:34:19;;;;;;;56.90;29.98;;;18.80;99.90;;;;;;4157376;28;20355;-69
2023/08/18 05:36:19;;;;;;;39.22;22.00;;;18.60;99.90;;;;;;4159775;28;20045;-69
2023/08/18 05:38:20;;;;;;;40.17;23.00;;;18.80;99.90;;;;;;4158906;28;20043;-69
2023/08/18 05:40:20;;;;;;;45.88;25.77;;;18.70;99.90;;;;;;4159163;28;20033;-70
2023/08/18 05:42:21;;;;;;;41.58;23.77;;;18.60;99.90;;;;;;4159199;28;20038;-64
2023/08/18 05:44:22;;;;;;;32.00;20.17;;;18.70;99.90;;;;;;4156059;28;20028;-63
2023/08/18 05:46:22;;;;;;;32.35;19.20;;;18.70;99.90;;;;;;4157852;28;20060;-63
2023/08/18 05:48:23;;;;;;;40.20;23.90;;;18.80;99.90;;;;;;4139290;28;20034;-64
2023/08/18 05:50:24;;;;;;;47.47;25.80;;;18.70;99.90;;;;;;4158832;28;20095;-64
2023/08/18 05:52:24;;;;;;;47.30;25.50;;;18.60;99.90;;;;;;4155686;28;20095;-64
2023/08/18 05:54:25;;;;;;;58.25;28.40;;;18.60;99.90;;;;;;4156329;28;20146;-64
2023/08/18 05:56:26;;;;;;;41.92;23.42;;;18.60;99.90;;;;;;4157556;28;20571;-64
2023/08/18 05:58:26;;;;;;;39.38;21.77;;;18.70;99.90;;;;;;4157686;28;20119;-63
2023/08/18 06:00:28;;;;;;;40.20;20.88;;;18.70;99.90;;;;;;4154968;28;20116;-64
2023/08/18 06:02:28;;;;;;;45.33;24.23;;;18.70;99.90;;;;;;4155765;28;20042;-64
2023/08/18 06:04:29;;;;;;;39.45;21.58;;;18.70;99.90;;;;;;4158800;28;20076;-64
2023/08/18 06:06:30;;;;;;;43.13;23.35;;;18.70;99.90;;;;;;4159673;28;20040;-64
2023/08/18 06:08:30;;;;;;;50.72;27.10;;;18.70;99.90;;;;;;4159705;28;20030;-64
2023/08/18 06:10:31;;;;;;;51.80;27.05;;;18.60;99.90;;;;;;4159272;28;20034;-63
2023/08/18 06:12:32;;;;;;;54.63;28.00;;;18.60;99.90;;;;;;4159512;28;20539;-70
2023/08/18 06:14:32;;;;;;;48.70;25.95;;;18.50;99.90;;;;;;4158546;28;20095;-70
2023/08/18 06:16:33;;;;;;;42.65;24.08;;;18.50;99.90;;;;;;4156198;28;20481;-70
2023/08/18 06:18:34;;;;;;;42.88;23.95;;;18.50;99.90;;;;;;4159726;28;20060;-70
2023/08/18 06:20:35;;;;;;;50.15;26.55;;;18.60;99.90;;;;;;4158588;28;20029;-70
2023/08/18 06:22:36;;;;;;;51.17;26.15;;;18.50;99.90;;;;;;4158191;28;20037;-70
2023/08/18 06:24:37;;;;;;;45.58;24.67;;;18.60;99.90;;;;;;4157193;28;20024;-71
2023/08/18 06:26:37;;;;;;;55.38;27.38;;;18.60;99.90;;;;;;4156190;28;20561;-71
2023/08/18 06:28:38;;;;;;;47.60;25.40;;;18.60;99.90;;;;;;4150083;28;20026;-71
2023/08/18 06:30:39;;;;;;;56.35;29.80;;;18.60;99.90;;;;;;4151675;28;20064;-71
2023/08/18 06:32:39;;;;;;;70.68;33.00;;;18.60;99.90;;;;;;4127551;28;20124;-70
2023/08/18 06:34:40;;;;;;;50.50;27.00;;;18.50;99.90;;;;;;4151588;28;20647;-70
2023/08/18 06:36:41;;;;;;;49.05;26.05;;;18.50;99.90;;;;;;4155278;28;20497;-70
2023/08/18 06:38:41;;;;;;;58.88;30.67;;;18.50;99.90;;;;;;4155895;28;20068;-70
2023/08/18 06:40:45;;;;;;;64.75;30.63;;;18.40;99.90;;;;;;4153990;28;20049;-71
2023/08/18 06:42:45;;;;;;;54.30;25.95;;;18.40;99.90;;;;;;4152840;28;20041;-71
2023/08/18 06:44:46;;;;;;;60.75;30.38;;;18.50;99.90;;;;;;4149813;28;20918;-71
2023/08/18 06:46:47;;;;;;;50.33;25.52;;;18.40;99.90;;;;;;4154087;28;20073;-71
2023/08/18 06:48:47;;;;;;;53.60;27.30;;;18.50;99.90;;;;;;4154597;28;20087;-70
2023/08/18 06:50:48;;;;;;;74.38;36.00;;;18.60;99.90;;;;;;4154731;28;20034;-71
2023/08/18 06:52:49;;;;;;;70.03;34.80;;;18.40;99.90;;;;;;4154874;28;20107;-64
2023/08/18 06:54:49;;;;;;;63.13;32.85;;;18.30;99.90;;;;;;4154594;28;20072;-69
2023/08/18 06:56:50;;;;;;;60.20;32.03;;;18.30;99.90;;;;;;4147114;28;20042;-69
2023/08/18 06:58:50;;;;;;;65.82;34.08;;;18.30;99.90;;;;;;4153695;28;20451;-70
2023/08/18 07:00:52;;;;;;;70.10;34.55;;;18.30;99.90;;;;;;4151973;28;20042;-70
2023/08/18 07:02:53;;;;;;;58.88;29.80;;;18.20;99.90;;;;;;4153106;28;20406;-70
2023/08/18 07:04:54;;;;;;;64.25;29.65;;;18.20;99.90;;;;;;4154755;28;20069;-69
2023/08/18 07:06:55;;;;;;;62.13;33.22;;;18.30;99.90;;;;;;4153296;28;20485;-70
2023/08/18 07:08:55;;;;;;;71.88;32.72;;;18.20;99.90;;;;;;4154504;28;20045;-70
2023/08/18 07:10:56;;;;;;;61.13;31.30;;;18.20;99.90;;;;;;4154156;28;20042;-69
2023/08/18 07:12:57;;;;;;;54.63;29.92;;;18.30;99.90;;;;;;4154639;28;20065;-70
2023/08/18 07:14:58;;;;;;;64.32;33.15;;;18.30;99.90;;;;;;4154162;28;20040;-70
2023/08/18 07:16:59;;;;;;;60.42;30.88;;;18.30;99.90;;;;;;4151253;28;20072;-70
2023/08/18 07:18:59;;;;;;;67.25;36.10;;;18.30;99.90;;;;;;4152607;28;20269;-69
2023/08/18 07:21:03;;;;;;;64.38;33.60;;;18.30;99.90;;;;;;4153843;28;20037;-72
2023/08/18 07:23:04;;;;;;;64.50;34.08;;;18.30;99.90;;;;;;4155349;28;20412;-63
2023/08/18 07:25:05;;;;;;;54.78;28.92;;;18.30;99.90;;;;;;4154224;28;20041;-63
2023/08/18 07:27:07;;;;;;;61.67;31.48;;;18.50;99.90;;;;;;4158842;28;20064;-63
2023/08/18 07:29:07;;;;;;;58.28;31.13;;;18.40;99.90;;;;;;4161662;28;20482;-63
2023/08/18 07:31:08;;;;;;;56.58;31.08;;;18.40;99.90;;;;;;4158268;28;20030;-63
2023/08/18 07:33:09;;;;;;;64.80;32.58;;;18.50;99.90;;;;;;4161638;28;20041;-62
2023/08/18 07:35:09;;;;;;;51.95;28.55;;;18.40;99.90;;;;;;4158982;28;20178;-63
2023/08/18 07:37:10;;;;;;;68.45;36.30;;;18.50;99.90;;;;;;4173659;28;20033;-62
2023/08/18 07:39:11;;;;;;;79.22;41.40;;;18.50;99.90;;;;;;4150491;28;20045;-63
2023/08/18 07:41:13;;;;;;;81.87;43.57;;;18.50;99.90;;;;;;4162428;28;20056;-63
2023/08/18 07:43:14;;;;;;;68.68;39.53;;;18.60;99.90;;;;;;4162021;28;20041;-63
2023/08/18 07:45:14;;;;;;;84.28;46.13;;;18.60;99.90;;;;;;4141727;28;20033;-63
2023/08/18 07:47:15;;;;;;;75.22;40.88;;;18.60;99.90;;;;;;4157211;28;20454;-63
2023/08/18 07:49:16;;;;;;;79.95;41.35;;;18.60;99.90;;;;;;4160034;28;20374;-62
2023/08/18 07:51:17;;;;;;;66.97;38.55;;;18.70;99.90;;;;;;4157040;28;20460;-62
2023/08/18 07:53:17;;;;;;;71.95;39.33;;;18.60;99.90;;;;;;4157365;28;20128;-63
2023/08/18 07:55:21;;;;;;;75.55;39.95;;;18.70;99.90;;;;;;4156137;28;20072;-63
2023/08/18 07:57:21;;;;;;;68.65;40.13;;;18.80;99.90;;;;;;4156191;28;20047;-62
2023/08/18 07:59:22;;;;;;;66.07;37.13;;;18.80;99.90;;;;;;4160238;28;20120;-63
2023/08/18 08:01:23;;;;;;;77.63;43.08;;;18.70;99.90;;;;;;4157267;28;20133;-63
2023/08/18 08:03:24;;;;;;;69.93;37.67;;;18.70;99.90;;;;;;4161305;28;20049;-71
2023/08/18 08:05:24;;;;;;;66.13;38.03;;;18.80;99.90;;;;;;4158244;28;20528;-71
2023/08/18 08:07:25;;;;;;;81.43;42.78;;;18.80;99.90;;;;;;4148887;28;20541;-71
2023/08/18 08:09:26;;;;;;;69.53;37.67;;;18.80;99.90;;;;;;4149718;28;20112;-70
2023/08/18 08:11:26;;;;;;;73.22;39.25;;;18.70;99.90;;;;;;4156237;28;20049;-70
2023/08/18 08:13:27;;;;;;;56.72;34.63;;;18.70;99.90;;;;;;4156740;28;20044;-66
2023/08/18 08:15:28;;;;;;;64.28;36.15;;;18.70;99.90;;;;;;4180591;28;20040;-66
2023/08/18 08:17:30;;;;;;;52.03;31.42;;;18.80;99.90;;;;;;4157452;28;20045;-66
2023/08/18 08:19:30;;;;;;;52.50;30.77;;;18.80;99.90;;;;;;4155163;28;20493;-65
2023/08/18 08:21:31;;;;;;;57.38;34.85;;;18.90;99.90;;;;;;4156611;28;20108;-66
2023/08/18 08:23:31;;;;;;;54.92;32.65;;;18.90;99.90;;;;;;4156819;28;20382;-66
2023/08/18 08:25:33;;;;;;;57.78;32.60;;;18.90;99.90;;;;;;4157431;28;20037;-65
2023/08/18 08:27:34;;;;;;;65.65;37.17;;;19.00;99.90;;;;;;4157449;28;20045;-65
2023/08/18 08:29:35;;;;;;;53.53;32.28;;;18.90;99.90;;;;;;4156904;28;20104;-65
2023/08/18 08:31:36;;;;;;;54.83;30.40;;;18.90;99.90;;;;;;4155563;28;20045;-65
2023/08/18 08:33:38;;;;;;;50.72;31.83;;;18.90;99.90;;;;;;4155783;28;20068;-69
2023/08/18 08:35:39;;;;;;;49.10;30.65;;;18.90;99.90;;;;;;4158064;28;20496;-69
2023/08/18 08:37:41;;;;;;;40.10;25.25;;;19.00;99.90;;;;;;4157893;28;20037;-70
2023/08/18 08:39:41;;;;;;;44.72;27.65;;;19.10;99.90;;;;;;4178259;28;20037;-69
2023/08/18 08:41:42;;;;;;;42.30;26.40;;;19.10;99.90;;;;;;4162369;28;20041;-70
2023/08/18 08:43:43;;;;;;;57.75;36.53;;;19.20;99.90;;;;;;4164959;28;20060;-70
2023/08/18 08:45:45;;;;;;;51.83;32.47;;;19.20;99.90;;;;;;4163848;28;20033;-70
2023/08/18 08:47:47;;;;;;;44.00;28.35;;;19.20;99.90;;;;;;4157107;28;20072;-65
2023/08/18 08:49:51;;;;;;;38.45;26.45;;;19.30;99.90;;;;;;4152925;28;20084;-63
2023/08/18 08:51:55;;;;;;;38.38;25.73;;;19.40;99.90;;;;;;4149285;28;20041;-62
2023/08/18 08:54:00;;;;;;;45.33;29.38;;;19.50;99.90;;;;;;4152032;28;20057;-62
2023/08/18 08:56:02;;;;;;;46.40;29.95;;;19.50;99.90;;;;;;4154181;28;20045;-63
2023/08/18 08:58:03;;;;;;;48.47;32.30;;;19.60;99.90;;;;;;4157908;28;20049;-62
2023/08/18 09:00:04;;;;;;;59.08;35.67;;;19.70;99.90;;;;;;4157366;28;20037;-63
2023/08/18 09:02:05;;;;;;;50.47;32.55;;;19.70;99.90;;;;;;4152992;28;20538;-62
2023/08/18 09:04:05;;;;;;;39.03;27.15;;;19.80;99.90;;;;;;4153069;28;20057;-63
2023/08/18 09:06:07;;;;;;;38.22;25.55;;;19.90;99.90;;;;;;4153516;28;20037;-62
2023/08/18 09:08:07;;;;;;;32.60;22.67;;;19.90;99.90;;;;;;4153114;28;20425;-66
2023/08/18 09:10:09;;;;;;;27.25;19.63;;;19.90;99.90;;;;;;4154124;28;20041;-64
2023/08/18 09:12:10;;;;;;;27.02;18.75;;;20.00;99.90;;;;;;4155496;28;20359;-62
2023/08/18 09:14:12;;;;;;;35.78;24.90;;;20.10;99.90;;;;;;4154192;28;20091;-62
2023/08/18 09:16:13;;;;;;;43.33;28.35;;;20.20;99.90;;;;;;4155663;28;20408;-62
2023/08/18 09:18:14;;;;;;;41.60;28.73;;;20.20;99.90;;;;;;4161108;28;20040;-63
2023/08/18 09:20:16;;;;;;;35.20;24.40;;;20.20;99.90;;;;;;4160308;28;20507;-62
2023/08/18 09:22:22;;;;;;;39.15;27.17;;;20.40;99.90;;;;;;4155747;28;20044;-62
2023/08/18 09:24:22;;;;;;;37.05;26.73;;;20.50;99.90;;;;;;4153660;28;20255;-62
2023/08/18 09:26:24;;;;;;;42.33;30.38;;;20.60;99.90;;;;;;4155140;28;20149;-62
2023/08/18 09:28:26;;;;;;;31.10;23.10;;;20.70;99.90;;;;;;4157537;28;20476;-62
2023/08/18 09:30:27;;;;;;;30.57;22.63;;;20.90;99.90;;;;;;4156656;28;20900;-62
2023/08/18 09:32:28;;;;;;;31.85;22.35;;;21.00;99.90;;;;;;4143464;28;20798;-63
2023/08/18 09:34:31;;;;;;;31.98;22.52;;;21.20;99.90;;;;;;4167202;28;20041;-62
2023/08/18 09:36:32;;;;;;;35.95;24.88;;;21.30;99.90;;;;;;4153344;28;20099;-62
2023/08/18 09:38:42;;;;;;;31.42;22.27;;;21.40;99.90;;;;;;4152444;28;20087;-62
2023/08/18 09:40:43;;;;;;;31.05;22.73;;;21.60;99.90;;;;;;4155426;28;20588;-62
2023/08/18 09:42:44;;;;;;;33.05;21.40;;;21.80;99.90;;;;;;4154859;28;20068;-62
2023/08/18 09:44:44;;;;;;;36.30;22.83;;;21.90;99.90;;;;;;4154355;28;20041;-62
2023/08/18 09:46:58;;;;;;;28.85;19.98;;;22.00;99.90;;;;;;4151179;28;20044;-62
2023/08/18 09:49:02;;;;;;;26.02;18.77;;;22.10;99.90;;;;;;4172385;28;20037;-62
2023/08/18 09:51:07;;;;;;;31.88;21.85;;;22.20;99.90;;;;;;4152472;28;20038;-63
2023/08/18 09:53:09;;;;;;;31.73;22.58;;;22.30;99.90;;;;;;4155274;28;20053;-62
2023/08/18 09:55:12;;;;;;;31.00;22.23;;;22.40;99.90;;;;;;4148746;28;20505;-63
2023/08/18 09:57:48;;;;;;;37.00;24.52;;;22.50;99.90;;;;;;4151731;28;20271;-63
2023/08/18 09:59:55;;;;;;;36.20;23.85;;;22.60;99.90;;;;;;4151620;28;20535;-62
2023/08/18 10:01:57;;;;;;;28.88;19.88;;;22.70;99.90;;;;;;4154951;28;20037;-64
2023/08/18 10:03:58;;;;;;;27.20;20.23;;;22.80;99.90;;;;;;4154076;28;20069;-67
2023/08/18 10:06:00;;;;;;;20.58;15.60;;;22.80;99.90;;;;;;4150625;28;20389;-62
2023/08/18 10:08:03;;;;;;;19.52;15.43;;;22.90;99.90;;;;;;4157481;28;20033;-62
2023/08/18 10:10:06;;;;;;;23.65;17.85;;;23.00;99.90;;;;;;4157104;28;20679;-63
2023/08/18 10:12:08;;;;;;;24.98;18.13;;;23.00;99.90;;;;;;4147057;28;20026;-62
2023/08/18 10:14:09;;;;;;;22.50;17.02;;;23.00;99.90;;;;;;4153627;28;20037;-62
2023/08/18 10:16:09;;;;;;;21.58;15.43;;;23.10;99.90;;;;;;4154585;28;20036;-62
2023/08/18 10:18:11;;;;;;;16.98;13.60;;;23.10;99.90;;;;;;4159680;28;20437;-62